This is the latest recevied weather packets stored in our database for station/object W0WC. If no packets are shown the sender has not sent any weather packets the latest 1 day(s).
| Time | Temp. | Humidity | Pressure | Rain* | Wind** | Luminosity | Snow |
|---|---|---|---|---|---|---|---|
| 1778086617 | 13.89° C | 49% | 1019.6 hPa | 0 mm | - | 387 W/m² | - |
| 1778086313 | 13.89° C | 50% | 1019.5 hPa | 0 mm | - | 387 W/m² | - |
| 1778085404 | 13.89° C | 49% | 1019.1 hPa | 0 mm | - | 362 W/m² | - |
| 1778083887 | 13.89° C | 53% | 1018.3 hPa | 0 mm | - | 389 W/m² | - |
| 1778082980 | 13.33° C | 54% | 1018.3 hPa | 0 mm | - | 820 W/m² | - |
| 1778082677 | 12.22° C | 58% | 1018 hPa | 0 mm | - | 706 W/m² | - |
| 1778080632 | 12.22° C | 59% | 1018.2 hPa | 0 mm | - | 323 W/m² | - |
| 1778080328 | 12.22° C | 58% | 1018.3 hPa | 0 mm | - | 623 W/m² | - |
| 1778079115 | 11.67° C | 62% | 1017.9 hPa | 0 mm | - | 495 W/m² | - |
| 1778078813 | 11.67° C | 65% | 1018 hPa | 0 mm | - | 485 W/m² | - |
| 1778076998 | 10° C | 72% | 1017.8 hPa | 0 mm | - | 161 W/m² | - |
| 1778076696 | 10° C | 74% | 1018.1 hPa | 0 mm | - | 189 W/m² | - |
| 1778073968 | 8.33° C | 79% | 1018.1 hPa | 0 mm | - | 104 W/m² | - |
| 1778073362 | 8.33° C | 81% | 1017.9 hPa | 0 mm | - | 69 W/m² | - |
| 1778073058 | 8.33° C | 81% | 1017.9 hPa | 0 mm | - | 63 W/m² | - |
| 1778072755 | 8.33° C | 81% | 1018 hPa | 0 mm | - | 58 W/m² | - |
| 1778072453 | 8.33° C | 81% | 1017.9 hPa | 0 mm | - | 46 W/m² | - |
| 1778072151 | 8.33° C | 82% | 1017.8 hPa | 0 mm | - | 46 W/m² | - |
| 1778070941 | 7.78° C | 85% | 1017.8 hPa | 0 mm | - | 45 W/m² | - |
| 1778070034 | 7.78° C | 87% | 1017.9 hPa | 0 mm | - | 30 W/m² | - |
| 1778069731 | 7.78° C | 88% | 1018 hPa | 0 mm | - | 20 W/m² | - |
| 1778069427 | 7.78° C | 88% | 1017.9 hPa | 0 mm | - | 15 W/m² | - |
| 1778069125 | 7.78° C | 89% | 1018.1 hPa | 0 mm | - | 15 W/m² | - |
| 1778067915 | 7.78° C | 92% | 1017.8 hPa | 0 mm | - | 6 W/m² | - |
| 1778067614 | 7.78° C | 93% | 1017.9 hPa | 0 mm | - | 5 W/m² | - |
* Rain latest hour (hover to see other rain measurements)
** Current wind speed in m/s (hover to see current wind gust speed)